createdAt,value
2018-11-05T00:00:38.605Z,90.33
2018-11-05T00:01:38.561Z,90.43
2018-11-05T00:02:38.547Z,90.02
2018-11-05T00:03:38.537Z,90.12
2018-11-05T00:04:38.526Z,90.27
2018-11-05T00:05:38.542Z,90.12
2018-11-05T00:06:38.510Z,90.43
2018-11-05T00:07:38.493Z,90.23
2018-11-05T00:08:38.487Z,90.53
2018-11-05T00:09:38.476Z,90.53
2018-11-05T00:10:38.482Z,90.33
2018-11-05T00:11:38.456Z,90.37
2018-11-05T00:12:38.453Z,90.47
2018-11-05T00:13:38.436Z,90.33
2018-11-05T00:14:38.427Z,91.35
2018-11-05T00:15:38.437Z,91.09
2018-11-05T00:16:38.413Z,90.99
2018-11-05T00:17:38.395Z,91.60
2018-11-05T00:18:38.377Z,91.60
2018-11-05T00:19:38.366Z,91.60
2018-11-05T00:20:38.374Z,91.60
2018-11-05T00:21:38.351Z,91.60
2018-11-05T00:22:38.348Z,91.39
2018-11-05T00:23:38.341Z,91.39
2018-11-05T00:24:38.321Z,90.74
2018-11-05T00:25:38.337Z,90.94
2018-11-05T00:26:38.292Z,90.74
2018-11-05T00:27:38.293Z,91.19
2018-11-05T00:28:38.278Z,91.15
2018-11-05T00:29:38.258Z,90.74
2018-11-05T00:30:38.255Z,90.53
2018-11-05T00:31:38.258Z,90.88
2018-11-05T00:32:38.225Z,90.84
2018-11-05T00:33:38.212Z,91.35
2018-11-05T00:34:38.204Z,91.35
2018-11-05T00:35:38.198Z,91.35
2018-11-05T00:36:38.219Z,91.35
2018-11-05T00:37:38.184Z,91.25
2018-11-05T00:38:38.190Z,91.35
2018-11-05T00:39:38.152Z,91.35
2018-11-05T00:40:38.137Z,91.05
2018-11-05T00:41:38.156Z,90.84
2018-11-05T00:42:38.119Z,91.56
2018-11-05T00:43:38.107Z,91.66
2018-11-05T00:44:38.104Z,92.27
2018-11-05T00:45:38.131Z,92.27
2018-11-05T00:46:38.094Z,91.76
2018-11-05T00:47:38.072Z,91.76
2018-11-05T00:48:38.052Z,92.07
2018-11-05T00:49:38.060Z,92.07
2018-11-05T00:50:38.034Z,92.17
2018-11-05T00:51:38.047Z,91.66
2018-11-05T00:52:38.028Z,92.52
2018-11-05T00:53:38.001Z,92.11
2018-11-05T00:54:38.015Z,92.32
2018-11-05T00:55:38.034Z,92.62
2018-11-05T00:56:37.982Z,92.52
2018-11-05T00:57:37.978Z,92.01
2018-11-05T00:58:37.965Z,92.52
2018-11-05T00:59:37.935Z,92.42
2018-11-05T01:00:37.929Z,93.13
2018-11-05T01:01:37.955Z,92.93
2018-11-05T01:02:37.901Z,92.93
2018-11-05T01:03:37.893Z,93.24
2018-11-05T01:04:37.883Z,93.44
2018-11-05T01:05:37.872Z,93.44
2018-11-05T01:06:37.899Z,93.13
2018-11-05T01:07:37.875Z,93.24
2018-11-05T01:08:37.841Z,93.33
2018-11-05T01:09:37.834Z,93.44
2018-11-05T01:10:37.829Z,93.13
2018-11-05T01:11:37.851Z,93.13
2018-11-05T01:12:37.842Z,93.13
2018-11-05T01:13:37.784Z,93.13
2018-11-05T01:14:37.775Z,93.54
2018-11-05T01:15:37.765Z,92.47
2018-11-05T01:16:37.776Z,92.37
2018-11-05T01:17:37.803Z,92.27
2018-11-05T01:18:37.749Z,92.68
2018-11-05T01:19:37.724Z,92.27
2018-11-05T01:20:37.705Z,92.37
2018-11-05T01:21:37.695Z,92.37
2018-11-05T01:22:37.727Z,92.17
2018-11-05T01:23:37.670Z,92.17
2018-11-05T01:24:37.660Z,92.17
2018-11-05T01:25:37.654Z,92.17
2018-11-05T01:26:37.654Z,92.11
2018-11-05T01:27:37.656Z,92.17
2018-11-05T01:28:37.619Z,92.07
2018-11-05T01:29:37.612Z,91.96
2018-11-05T01:30:37.608Z,92.01
2018-11-05T01:31:37.597Z,92.37
2018-11-05T01:32:37.606Z,92.37
2018-11-05T01:33:37.567Z,92.37
2018-11-05T01:34:37.563Z,92.47
2018-11-05T01:35:37.543Z,92.42
2018-11-05T01:36:37.535Z,92.72
2018-11-05T01:37:37.544Z,93.44
2018-11-05T01:38:37.528Z,93.13
2018-11-05T01:39:37.540Z,93.33
2018-11-05T01:40:37.506Z,93.54
2018-11-05T01:41:37.493Z,93.33
2018-11-05T01:42:37.493Z,92.42
2018-11-05T01:43:37.475Z,92.58
2018-11-05T01:44:37.454Z,92.52
2018-11-05T01:45:37.484Z,92.47
2018-11-05T01:46:37.434Z,92.72
2018-11-05T01:47:37.431Z,92.47
2018-11-05T01:48:37.420Z,92.07
2018-11-05T01:49:37.396Z,92.21
2018-11-05T01:50:37.408Z,92.27
2018-11-05T01:51:37.412Z,92.17
2018-11-05T01:52:37.408Z,92.17
2018-11-05T01:53:37.351Z,92.58
2018-11-05T01:54:37.340Z,92.27
2018-11-05T01:55:37.332Z,92.32
2018-11-05T01:56:37.339Z,92.47
2018-11-05T01:57:37.305Z,92.58
2018-11-05T01:58:37.310Z,92.62
2018-11-05T01:59:37.290Z,92.52
2018-11-05T02:00:37.280Z,92.52
2018-11-05T02:01:37.264Z,92.62
2018-11-05T02:02:37.252Z,93.13
2018-11-05T02:03:37.263Z,93.54
2018-11-05T02:04:37.231Z,93.24
2018-11-05T02:05:37.218Z,93.13
2018-11-05T02:06:37.202Z,93.13
2018-11-05T02:07:37.197Z,93.13
2018-11-05T02:08:37.214Z,93.44
2018-11-05T02:09:37.180Z,93.54
2018-11-05T02:10:37.169Z,93.09
2018-11-05T02:11:37.149Z,93.24
2018-11-05T02:12:37.145Z,93.24
2018-11-05T02:13:37.155Z,93.24
2018-11-05T02:14:37.118Z,93.13
2018-11-05T02:15:37.108Z,93.33
2018-11-05T02:16:37.098Z,92.93
2018-11-05T02:17:37.084Z,93.65
2018-11-05T02:18:37.101Z,93.48
2018-11-05T02:19:37.063Z,93.54
2018-11-05T02:20:37.090Z,93.54
2018-11-05T02:21:37.062Z,93.65
2018-11-05T02:22:37.031Z,93.44
2018-11-05T02:23:37.053Z,93.54
2018-11-05T02:24:37.028Z,93.33
2018-11-05T02:25:37.006Z,92.93
2018-11-05T02:26:37.003Z,92.93
2018-11-05T02:27:36.981Z,93.13
2018-11-05T02:28:37.012Z,93.24
2018-11-05T02:29:36.955Z,93.24
2018-11-05T02:30:36.947Z,93.44
2018-11-05T02:31:36.939Z,93.54
2018-11-05T02:32:36.925Z,92.93
2018-11-05T02:33:36.913Z,93.59
2018-11-05T02:34:36.919Z,93.95
2018-11-05T02:35:36.898Z,93.79
2018-11-05T02:36:36.878Z,93.89
2018-11-05T02:37:36.870Z,93.85
2018-11-05T02:38:36.853Z,93.69
2018-11-05T02:39:36.867Z,93.85
2018-11-05T02:40:36.833Z,93.65
2018-11-05T02:41:36.838Z,94.06
2018-11-05T02:42:36.823Z,93.79
2018-11-05T02:43:36.798Z,93.74
2018-11-05T02:44:36.807Z,94.10
2018-11-05T02:45:36.785Z,93.44
2018-11-05T02:46:36.765Z,93.33
2018-11-05T02:47:36.760Z,92.93
2018-11-05T02:48:36.751Z,92.83
2018-11-05T02:49:36.772Z,92.87
2018-11-05T02:50:36.738Z,92.87
2018-11-05T02:51:36.717Z,93.13
2018-11-05T02:52:36.700Z,93.59
2018-11-05T02:53:36.694Z,93.59
2018-11-05T02:54:36.717Z,93.79
2018-11-05T02:55:36.672Z,93.59
2018-11-05T02:56:36.712Z,93.48
2018-11-05T02:57:36.645Z,93.38
2018-11-05T02:58:36.640Z,94.10
2018-11-05T02:59:36.644Z,93.48
2018-11-05T03:00:36.621Z,93.48
2018-11-05T03:01:36.603Z,93.69
2018-11-05T03:02:36.632Z,93.28
2018-11-05T03:03:36.586Z,92.87
2018-11-05T03:04:36.598Z,93.13
2018-11-05T03:05:36.564Z,93.33
2018-11-05T03:06:36.556Z,92.97
2018-11-05T03:07:36.539Z,93.54
2018-11-05T03:08:36.527Z,93.24
2018-11-05T03:09:36.542Z,93.28
2018-11-05T03:10:36.502Z,92.87
2018-11-05T03:11:36.496Z,93.24
2018-11-05T03:12:36.486Z,93.03
2018-11-05T03:13:36.479Z,93.44
2018-11-05T03:14:36.497Z,93.03
2018-11-05T03:15:36.466Z,93.03
2018-11-05T03:16:36.446Z,93.13
2018-11-05T03:17:36.436Z,93.24
2018-11-05T03:18:36.415Z,93.13
2018-11-05T03:19:36.411Z,93.13
2018-11-05T03:20:36.422Z,93.44
2018-11-05T03:21:36.383Z,93.44
2018-11-05T03:22:36.402Z,93.13
2018-11-05T03:23:36.383Z,93.03
2018-11-05T03:24:36.348Z,93.24
2018-11-05T03:25:36.403Z,93.44
2018-11-05T03:26:36.329Z,93.44
2018-11-05T03:27:36.318Z,92.93
2018-11-05T03:28:36.365Z,93.44
2018-11-05T03:29:36.303Z,93.07
2018-11-05T03:30:36.299Z,93.24
2018-11-05T03:31:36.285Z,93.54
2018-11-05T03:32:36.286Z,92.52
2018-11-05T03:33:36.259Z,92.56
2018-11-05T03:34:36.237Z,92.52
2018-11-05T03:35:36.311Z,92.77
2018-11-05T03:36:36.233Z,92.66
2018-11-05T03:37:36.206Z,93.38
2018-11-05T03:38:36.207Z,93.18
2018-11-05T03:39:36.195Z,93.44
2018-11-05T03:40:36.208Z,93.38
2018-11-05T03:41:36.161Z,93.24
2018-11-05T03:42:36.153Z,93.28
2018-11-05T03:43:36.145Z,93.28
2018-11-05T03:44:36.140Z,93.38
2018-11-05T03:45:36.142Z,93.07
2018-11-05T03:46:36.110Z,93.07
2018-11-05T03:47:36.101Z,93.18
2018-11-05T03:48:36.095Z,93.28
2018-11-05T03:49:36.099Z,93.07
2018-11-05T03:50:36.088Z,93.28
2018-11-05T03:51:36.050Z,93.28
2018-11-05T03:52:36.053Z,92.72
2018-11-05T03:53:36.039Z,92.66
2018-11-05T03:54:36.033Z,92.42
2018-11-05T03:55:36.133Z,92.21
2018-11-05T03:56:36.064Z,92.21
2018-11-05T03:57:35.992Z,92.21
2018-11-05T03:58:36.006Z,92.42
2018-11-05T03:59:35.967Z,92.62
2018-11-05T04:00:35.982Z,91.91
2018-11-05T04:01:35.947Z,91.91
2018-11-05T04:02:35.939Z,91.80
2018-11-05T04:03:35.923Z,92.52
2018-11-05T04:04:35.921Z,92.32
2018-11-05T04:05:35.916Z,92.21
2018-11-05T04:06:35.949Z,92.66
2018-11-05T04:07:35.878Z,93.48
2018-11-05T04:08:35.882Z,93.38
2018-11-05T04:09:35.857Z,93.22
2018-11-05T04:10:35.848Z,93.22
2018-11-05T04:11:35.856Z,93.84
2018-11-05T04:12:35.823Z,93.73
2018-11-05T04:13:35.828Z,94.75
2018-11-05T04:14:35.799Z,93.77
2018-11-05T04:15:35.901Z,95.06
2018-11-05T04:16:35.809Z,95.06
2018-11-05T04:17:35.768Z,95.10
2018-11-05T04:18:35.779Z,94.04
2018-11-05T04:19:35.755Z,94.39
2018-11-05T04:20:35.738Z,94.96
2018-11-05T04:21:35.743Z,94.24
2018-11-05T04:22:35.732Z,95.21
2018-11-05T04:23:35.715Z,94.18
2018-11-05T04:24:35.704Z,93.84
2018-11-05T04:25:35.688Z,94.08
2018-11-05T04:26:35.695Z,94.45
2018-11-05T04:27:35.710Z,94.55
2018-11-05T04:28:35.666Z,94.34
2018-11-05T04:29:35.638Z,93.84
2018-11-05T04:30:35.633Z,93.73
2018-11-05T04:31:35.656Z,93.73
2018-11-05T04:32:35.607Z,93.84
2018-11-05T04:33:35.603Z,93.63
2018-11-05T04:34:35.581Z,93.93
2018-11-05T04:35:35.571Z,93.88
2018-11-05T04:36:35.591Z,94.96
2018-11-05T04:37:35.566Z,94.59
2018-11-05T04:38:35.551Z,94.29
2018-11-05T04:39:35.531Z,94.08
2018-11-05T04:40:35.520Z,94.34
2018-11-05T04:41:35.534Z,94.08
2018-11-05T04:42:35.507Z,94.08
2018-11-05T04:43:35.488Z,94.70
2018-11-05T04:44:35.475Z,95.37
2018-11-05T04:45:35.461Z,95.10
2018-11-05T04:46:35.488Z,94.80
2018-11-05T04:47:35.465Z,95.21
2018-11-05T04:48:35.437Z,95.21
2018-11-05T04:49:35.417Z,94.49
2018-11-05T04:50:35.431Z,94.08
2018-11-05T04:51:35.397Z,94.43
2018-11-05T04:52:35.421Z,94.43
2018-11-05T04:53:35.372Z,95.15
2018-11-05T04:54:35.362Z,95.36
2018-11-05T04:55:35.350Z,95.36
2018-11-05T04:56:35.341Z,95.25
2018-11-05T04:57:35.351Z,95.15
2018-11-05T04:58:35.319Z,95.05
2018-11-05T04:59:35.326Z,95.15
2018-11-05T05:00:35.299Z,94.43
2018-11-05T05:01:35.284Z,95.25
2018-11-05T05:02:35.328Z,95.15
2018-11-05T05:03:35.272Z,95.15
2018-11-05T05:04:35.282Z,95.36
2018-11-05T05:05:35.268Z,95.29
2018-11-05T05:06:35.247Z,95.05
2018-11-05T05:07:35.248Z,95.15
2018-11-05T05:08:35.208Z,95.15
2018-11-05T05:09:35.198Z,94.64
2018-11-05T05:10:35.183Z,94.84
2018-11-05T05:11:35.186Z,94.54
2018-11-05T05:12:35.190Z,95.09
2018-11-05T05:13:35.186Z,95.15
2018-11-05T05:14:35.140Z,94.64
2018-11-05T05:15:35.134Z,94.33
2018-11-05T05:16:35.128Z,94.54
2018-11-05T05:17:35.140Z,94.02
2018-11-05T05:18:35.096Z,95.00
2018-11-05T05:19:35.093Z,93.71
2018-11-05T05:20:35.130Z,93.92
2018-11-05T05:21:35.072Z,94.08
2018-11-05T05:22:35.224Z,93.88
2018-11-05T05:23:35.048Z,93.77
2018-11-05T05:24:35.031Z,93.47
2018-11-05T05:25:35.041Z,92.96
2018-11-05T05:26:35.017Z,93.37
2018-11-05T05:27:35.040Z,93.57
2018-11-05T05:28:34.989Z,93.47
2018-11-05T05:29:35.009Z,93.67
2018-11-05T05:30:34.966Z,93.47
2018-11-05T05:31:34.967Z,93.47
2018-11-05T05:32:34.955Z,93.06
2018-11-05T05:33:35.017Z,93.37
2018-11-05T05:34:34.923Z,93.22
2018-11-05T05:35:34.921Z,93.06
2018-11-05T05:36:34.900Z,93.37
2018-11-05T05:37:34.898Z,93.06
2018-11-05T05:38:34.919Z,93.47
2018-11-05T05:39:34.870Z,92.44
2018-11-05T05:40:34.861Z,92.65
2018-11-05T05:41:34.844Z,92.14
2018-11-05T05:42:34.836Z,92.75
2018-11-05T05:43:34.839Z,92.75
2018-11-05T05:44:34.841Z,93.67
2018-11-05T05:45:34.819Z,92.34
2018-11-05T05:46:34.795Z,92.24
2018-11-05T05:47:34.783Z,92.79
2018-11-05T05:48:34.790Z,93.41
2018-11-05T05:49:34.756Z,93.51
2018-11-05T05:50:34.753Z,93.30
2018-11-05T05:51:34.733Z,93.41
2018-11-05T05:52:34.732Z,93.51
2018-11-05T05:53:34.745Z,93.62
2018-11-05T05:54:34.757Z,93.71
2018-11-05T05:55:34.689Z,93.88
2018-11-05T05:56:34.682Z,93.37
2018-11-05T05:57:34.665Z,93.06
2018-11-05T05:58:34.700Z,93.67
2018-11-05T05:59:34.646Z,93.57
2018-11-05T06:00:34.664Z,93.16
2018-11-05T06:01:34.621Z,93.37
2018-11-05T06:02:34.638Z,93.16
2018-11-05T06:03:34.653Z,93.06
2018-11-05T06:04:34.592Z,93.57
2018-11-05T06:05:34.583Z,93.06
2018-11-05T06:06:34.708Z,93.47
2018-11-05T06:07:34.560Z,93.10
2018-11-05T06:08:34.570Z,93.71
2018-11-05T06:09:34.555Z,93.92
2018-11-05T06:10:34.533Z,94.02
2018-11-05T06:11:34.515Z,94.89
2018-11-05T06:12:34.508Z,94.64
2018-11-05T06:13:34.491Z,94.54
2018-11-05T06:14:34.505Z,94.64
2018-11-05T06:15:34.481Z,94.43
2018-11-05T06:16:34.489Z,93.92
2018-11-05T06:17:34.500Z,94.64
2018-11-05T06:18:34.446Z,93.82
2018-11-05T06:19:34.444Z,94.02
2018-11-05T06:20:34.421Z,93.62
2018-11-05T06:21:34.420Z,93.82
2018-11-05T06:22:34.407Z,93.82
2018-11-05T06:23:34.453Z,93.92
2018-11-05T06:24:34.407Z,93.45
2018-11-05T06:25:34.386Z,93.51
2018-11-05T06:26:34.388Z,93.51
2018-11-05T06:27:34.354Z,94.12
2018-11-05T06:28:34.462Z,93.82
2018-11-05T06:29:34.350Z,93.82
2018-11-05T06:30:34.313Z,93.41
2018-11-05T06:31:34.332Z,93.06
2018-11-05T06:32:34.286Z,93.41
2018-11-05T06:33:34.310Z,93.57
2018-11-05T06:34:34.302Z,93.06
2018-11-05T06:35:34.260Z,93.41
2018-11-05T06:36:34.257Z,93.67
2018-11-05T06:37:34.235Z,93.47
2018-11-05T06:38:34.224Z,92.85
2018-11-05T06:39:34.238Z,92.75
2018-11-05T06:40:34.209Z,92.69
2018-11-05T06:41:34.308Z,92.79
2018-11-05T06:42:34.180Z,92.75
2018-11-05T06:43:34.175Z,93.51
2018-11-05T06:44:34.211Z,93.37
2018-11-05T06:45:34.238Z,93.06
2018-11-05T06:46:34.141Z,93.30
2018-11-05T06:47:34.120Z,93.37
2018-11-05T06:48:34.113Z,93.30
2018-11-05T06:49:34.132Z,93.67
2018-11-05T06:50:34.085Z,93.88
2018-11-05T06:51:34.084Z,93.92
2018-11-05T06:52:34.109Z,93.67
2018-11-05T06:53:34.054Z,93.30
2018-11-05T06:54:34.041Z,93.71
2018-11-05T06:55:34.071Z,93.71
2018-11-05T06:56:34.019Z,93.62
2018-11-05T06:57:34.046Z,93.62
2018-11-05T06:58:34.038Z,93.62
2018-11-05T06:59:34.013Z,93.51
2018-11-05T07:00:34.015Z,93.20
2018-11-05T07:01:33.968Z,93.35
2018-11-05T07:02:34.018Z,93.30
2018-11-05T07:03:33.981Z,93.10
2018-11-05T07:04:33.961Z,93.41
2018-11-05T07:05:33.960Z,93.30
2018-11-05T07:06:33.910Z,93.51
2018-11-05T07:07:33.911Z,93.45
2018-11-05T07:08:33.893Z,93.45
2018-11-05T07:09:33.878Z,93.35
2018-11-05T07:10:33.880Z,93.35
2018-11-05T07:11:34.048Z,93.15
2018-11-05T07:12:33.843Z,93.15
2018-11-05T07:13:33.843Z,93.55
2018-11-05T07:14:33.819Z,93.96
2018-11-05T07:15:33.840Z,93.66
2018-11-05T07:16:33.808Z,93.86
2018-11-05T07:17:33.791Z,93.86
2018-11-05T07:18:33.967Z,93.86
2018-11-05T07:19:33.912Z,93.96
2018-11-05T07:20:33.774Z,94.07
2018-11-05T07:21:33.746Z,94.27
2018-11-05T07:22:33.737Z,94.27
2018-11-05T07:23:33.732Z,95.09
2018-11-05T07:24:33.718Z,94.58
2018-11-05T07:25:33.731Z,94.68
2018-11-05T07:26:33.755Z,94.64
2018-11-05T07:27:33.705Z,94.58
2018-11-05T07:28:33.672Z,94.99
2018-11-05T07:29:33.663Z,94.12
2018-11-05T07:30:33.645Z,93.51
2018-11-05T07:31:33.661Z,93.92
2018-11-05T07:32:33.641Z,93.55
2018-11-05T07:33:33.735Z,93.62
2018-11-05T07:34:33.710Z,93.66
2018-11-05T07:35:33.592Z,93.45
2018-11-05T07:36:33.599Z,93.51
2018-11-05T07:37:33.572Z,93.66
2018-11-05T07:38:33.566Z,93.71
2018-11-05T07:39:33.552Z,93.41
2018-11-05T07:40:33.539Z,93.71
2018-11-05T07:41:33.549Z,93.10
2018-11-05T07:42:33.558Z,93.37
2018-11-05T07:43:33.528Z,93.30
2018-11-05T07:44:33.494Z,92.55
2018-11-05T07:45:33.485Z,92.49
2018-11-05T07:46:33.479Z,92.69
2018-11-05T07:47:33.457Z,93.35
2018-11-05T07:48:33.469Z,93.30
2018-11-05T07:49:33.458Z,93.20
2018-11-05T07:50:33.429Z,93.30
2018-11-05T07:51:33.415Z,93.10
2018-11-05T07:52:33.406Z,93.62
2018-11-05T07:53:33.435Z,93.10
2018-11-05T07:54:33.513Z,93.06
2018-11-05T07:55:33.370Z,93.67
2018-11-05T07:56:33.407Z,92.24
2018-11-05T07:57:33.346Z,92.55
2018-11-05T07:58:33.336Z,92.34
2018-11-05T07:59:33.370Z,92.34
2018-11-05T08:00:33.320Z,92.34
2018-11-05T08:01:33.312Z,92.14
2018-11-05T08:02:33.295Z,91.63
2018-11-05T08:03:33.287Z,91.63
2018-11-05T08:04:33.291Z,91.11
2018-11-05T08:05:33.285Z,91.31
2018-11-05T08:06:33.261Z,91.11
2018-11-05T08:07:33.243Z,91.73
2018-11-05T08:08:33.259Z,91.83
2018-11-05T08:09:33.231Z,91.73
2018-11-05T08:10:33.210Z,90.81
2018-11-05T08:11:33.196Z,91.83
2018-11-05T08:12:33.197Z,91.73
2018-11-05T08:13:33.190Z,91.31
2018-11-05T08:14:33.255Z,91.01
2018-11-05T08:15:33.150Z,91.07
2018-11-05T08:16:33.156Z,90.86
2018-11-05T08:17:33.147Z,90.81
2018-11-05T08:18:33.123Z,91.07
2018-11-05T08:19:33.131Z,90.77
2018-11-05T08:20:33.099Z,90.56
2018-11-05T08:21:33.090Z,91.42
2018-11-05T08:22:33.076Z,91.42
2018-11-05T08:23:33.065Z,91.31
2018-11-05T08:24:33.082Z,91.63
2018-11-05T08:25:33.052Z,91.83
2018-11-05T08:26:33.118Z,91.73
2018-11-05T08:27:33.027Z,91.42
2018-11-05T08:28:33.028Z,91.11
2018-11-05T08:29:33.053Z,91.11
2018-11-05T08:30:33.000Z,91.58
2018-11-05T08:31:33.006Z,91.38
2018-11-05T08:32:33.004Z,91.17
2018-11-05T08:33:32.961Z,90.91
2018-11-05T08:34:32.947Z,91.07
2018-11-05T08:35:32.930Z,90.25
2018-11-05T08:36:32.960Z,90.66
2018-11-05T08:37:32.911Z,90.45
2018-11-05T08:38:32.901Z,90.50
2018-11-05T08:39:32.898Z,91.07
2018-11-05T08:40:32.885Z,90.50
2018-11-05T08:41:33.048Z,91.52
2018-11-05T08:42:32.856Z,91.01
2018-11-05T08:43:32.849Z,91.01
2018-11-05T08:44:32.833Z,91.48
2018-11-05T08:45:32.845Z,91.42
2018-11-05T08:46:32.840Z,91.27
2018-11-05T08:47:32.812Z,91.42
2018-11-05T08:48:32.791Z,90.81
2018-11-05T08:49:32.797Z,91.52
2018-11-05T08:50:40.244Z,90.91
2018-11-05T08:51:33.094Z,91.58
2018-11-05T08:52:32.749Z,90.66
2018-11-05T08:53:40.366Z,90.25
2018-11-05T08:54:32.727Z,90.66
2018-11-05T08:55:32.712Z,90.66
2018-11-05T08:56:32.722Z,90.56
2018-11-05T08:57:32.744Z,90.45
2018-11-05T08:58:32.680Z,90.56
2018-11-05T08:59:32.671Z,90.50
2018-11-05T09:00:32.666Z,90.39
2018-11-05T09:01:32.657Z,90.30
2018-11-05T09:02:32.655Z,90.39
2018-11-05T09:03:32.658Z,91.31
2018-11-05T09:04:32.622Z,91.11
2018-11-05T09:05:32.629Z,91.42
2018-11-05T09:06:32.618Z,91.31
2018-11-05T09:07:32.613Z,90.91
2018-11-05T09:08:32.592Z,91.42
2018-11-05T09:09:32.618Z,90.56
2018-11-05T09:10:32.707Z,90.56
2018-11-05T09:11:32.914Z,90.05
2018-11-05T09:12:32.554Z,90.05
2018-11-05T09:13:32.516Z,89.90
2018-11-05T09:14:32.510Z,89.53
2018-11-05T09:15:32.528Z,90.15
2018-11-05T09:16:32.486Z,89.74
2018-11-05T09:17:32.488Z,89.74
2018-11-05T09:18:32.473Z,89.74
2018-11-05T09:19:32.449Z,89.74
2018-11-05T09:20:32.475Z,89.94
2018-11-05T09:21:32.422Z,90.15
2018-11-05T09:22:32.454Z,89.59
2018-11-05T09:24:26.501Z,88.78
2018-11-05T09:25:26.466Z,88.98
2018-11-05T09:26:26.460Z,88.78
2018-11-05T09:27:26.488Z,88.98
2018-11-05T09:28:26.432Z,88.98
2018-11-05T09:29:26.425Z,89.09
2018-11-05T09:30:26.435Z,88.94
2018-11-05T09:31:26.397Z,87.92
2018-11-05T09:32:26.400Z,88.23
2018-11-05T09:33:26.404Z,88.08
2018-11-05T09:34:26.364Z,87.61
2018-11-05T09:35:26.354Z,87.92
2018-11-05T09:36:26.345Z,87.77
2018-11-05T09:37:26.370Z,87.16
2018-11-05T09:38:26.334Z,87.47
2018-11-05T09:39:26.318Z,87.71
2018-11-05T09:40:26.305Z,88.08
2018-11-05T09:41:26.290Z,88.12
2018-11-05T09:42:26.327Z,88.12
2018-11-05T09:43:26.303Z,88.08
2018-11-05T09:44:26.286Z,88.39
2018-11-05T09:45:26.256Z,87.67
2018-11-05T09:46:26.264Z,87.37
2018-11-05T09:47:26.268Z,87.37
2018-11-05T09:48:26.273Z,86.85
2018-11-05T09:49:26.239Z,86.14
2018-11-05T09:50:26.273Z,86.96
2018-11-05T09:51:26.186Z,86.71
2018-11-05T09:52:26.190Z,86.30
2018-11-05T09:53:26.181Z,86.82
2018-11-05T09:54:26.175Z,86.36
2018-11-05T09:55:26.190Z,85.45
2018-11-05T09:56:26.122Z,85.14
2018-11-05T09:57:26.233Z,85.14
2018-11-05T09:58:26.136Z,85.35
2018-11-05T09:59:26.087Z,84.53
2018-11-05T10:00:26.122Z,85.55
2018-11-05T10:01:26.078Z,85.24
2018-11-05T10:02:33.764Z,84.74
2018-11-05T10:03:26.364Z,83.87
2018-11-05T10:04:26.179Z,84.01
2018-11-05T10:05:27.290Z,84.12
2018-11-05T10:06:26.026Z,84.22
2018-11-05T10:07:26.022Z,84.33
2018-11-05T10:08:26.016Z,84.33
2018-11-05T10:09:26.009Z,84.01
2018-11-05T10:10:26.040Z,84.42
2018-11-05T10:11:25.980Z,83.71
2018-11-05T10:12:25.995Z,84.67
2018-11-05T10:13:25.968Z,84.22
2018-11-05T10:14:25.959Z,84.83
2018-11-05T10:15:25.913Z,84.74
2018-11-05T10:16:25.942Z,84.53
2018-11-05T10:17:25.900Z,84.01
2018-11-05T10:18:25.895Z,83.61
2018-11-05T10:19:25.892Z,83.75
2018-11-05T10:20:25.858Z,83.95
2018-11-05T10:21:25.851Z,84.12
2018-11-05T10:22:25.888Z,83.81
2018-11-05T10:23:25.856Z,84.01
2018-11-05T10:24:25.916Z,83.71
2018-11-05T10:25:25.816Z,83.40
2018-11-05T10:26:25.822Z,84.06
2018-11-05T10:27:25.792Z,83.75
2018-11-05T10:28:25.782Z,84.06
2018-11-05T10:29:25.776Z,84.06
2018-11-05T10:30:25.750Z,84.36
2018-11-05T10:31:25.784Z,84.16
2018-11-05T10:32:25.730Z,83.71
2018-11-05T10:33:25.793Z,84.01
2018-11-05T10:34:25.756Z,83.92
2018-11-05T10:35:25.714Z,83.71
2018-11-05T10:36:25.682Z,83.71
2018-11-05T10:37:25.683Z,83.92
2018-11-05T10:38:25.690Z,83.61
2018-11-05T10:39:25.681Z,83.81
2018-11-05T10:40:25.845Z,83.81
2018-11-05T10:41:25.747Z,83.57
2018-11-05T10:42:25.710Z,83.87
2018-11-05T10:43:25.676Z,82.35
2018-11-05T10:44:25.601Z,82.61
2018-11-05T10:45:25.624Z,82.21
2018-11-05T10:46:25.670Z,82.21
2018-11-05T10:47:25.562Z,82.61
2018-11-05T10:48:25.553Z,82.00
2018-11-05T10:49:25.543Z,82.10
2018-11-05T10:50:25.657Z,82.00
2018-11-05T10:51:25.694Z,81.90
2018-11-05T10:52:25.592Z,81.59
2018-11-05T10:53:25.508Z,81.49
2018-11-05T10:54:25.567Z,81.76
2018-11-05T10:55:25.506Z,81.96
2018-11-05T10:56:25.462Z,81.15
2018-11-05T10:57:25.460Z,80.23
2018-11-05T10:58:25.439Z,80.60
2018-11-05T10:59:25.437Z,80.40
2018-11-05T11:00:25.458Z,80.09
2018-11-05T11:01:25.410Z,80.29
2018-11-05T11:02:25.405Z,79.79
2018-11-05T11:03:25.391Z,79.79
2018-11-05T11:04:25.395Z,79.82
2018-11-05T11:05:25.384Z,80.23
2018-11-05T11:06:25.368Z,79.99
2018-11-05T11:07:25.378Z,80.29
2018-11-05T11:08:25.346Z,80.29
2018-11-05T11:09:25.370Z,80.50
2018-11-05T11:10:25.365Z,80.50
2018-11-05T11:11:25.352Z,79.17
2018-11-05T11:12:25.308Z,79.89
2018-11-05T11:13:25.300Z,79.17
2018-11-05T11:14:25.269Z,80.19
2018-11-05T11:15:25.407Z,79.79
2018-11-05T11:16:25.263Z,79.14
2018-11-05T11:17:25.236Z,79.03
2018-11-05T11:18:25.230Z,78.73
2018-11-05T11:19:25.237Z,78.93
2018-11-05T11:20:25.206Z,78.63
2018-11-05T11:21:25.213Z,78.73
2018-11-05T11:22:25.192Z,78.42
2018-11-05T11:23:25.172Z,78.73
2018-11-05T11:24:25.168Z,78.59
2018-11-05T11:25:25.159Z,78.28
2018-11-05T11:26:25.160Z,78.89
2018-11-05T11:27:25.134Z,78.19
2018-11-05T11:28:25.296Z,78.39
2018-11-05T11:29:25.257Z,78.49
2018-11-05T11:30:25.113Z,78.28
2018-11-05T11:31:25.103Z,77.98
2018-11-05T11:32:25.068Z,78.28
2018-11-05T11:33:25.064Z,78.28
2018-11-05T11:34:25.052Z,78.39
2018-11-05T11:35:25.044Z,78.08
2018-11-05T11:36:25.080Z,78.28
2018-11-05T11:37:32.616Z,77.64
2018-11-05T11:38:25.004Z,77.78
2018-11-05T11:39:25.004Z,78.05
2018-11-05T11:40:25.048Z,77.94
2018-11-05T11:41:24.971Z,77.94
2018-11-05T11:42:24.998Z,78.25
2018-11-05T11:43:24.958Z,77.94
2018-11-05T11:44:24.999Z,77.84
2018-11-05T11:45:24.928Z,77.64
2018-11-05T11:46:24.918Z,77.74
2018-11-05T11:47:24.932Z,78.15
2018-11-05T11:48:24.915Z,78.01
2018-11-05T11:49:24.908Z,77.70
2018-11-05T11:50:24.911Z,77.20
2018-11-05T11:51:24.862Z,77.03
2018-11-05T11:52:24.917Z,76.99
2018-11-05T11:53:24.944Z,77.20
2018-11-05T11:54:24.862Z,77.20
2018-11-05T11:55:24.824Z,77.20
2018-11-05T11:56:24.845Z,77.26
2018-11-05T11:57:24.857Z,76.95
2018-11-05T11:58:24.843Z,76.95
2018-11-05T11:59:24.859Z,76.86
2018-11-05T12:00:24.764Z,76.75
2018-11-05T12:01:24.758Z,76.95
2018-11-05T12:02:24.800Z,76.86
2018-11-05T12:03:24.739Z,76.25
2018-11-05T12:04:24.748Z,76.01
2018-11-05T12:05:24.904Z,76.41
2018-11-05T12:06:24.714Z,76.21
2018-11-05T12:07:24.726Z,76.41
2018-11-05T12:08:24.743Z,75.49
2018-11-05T12:09:24.669Z,75.90
2018-11-05T12:10:24.659Z,75.80
2018-11-05T12:11:24.647Z,76.41
2018-11-05T12:12:24.637Z,76.51
2018-11-05T12:13:24.655Z,76.68
2018-11-05T12:14:24.663Z,76.01
2018-11-05T12:15:24.612Z,75.46
2018-11-05T12:16:24.622Z,75.67
2018-11-05T12:17:24.599Z,74.95
2018-11-05T12:18:24.606Z,75.16
2018-11-05T12:19:24.573Z,74.95
2018-11-05T12:20:24.644Z,74.95
2018-11-05T12:21:24.547Z,74.71
2018-11-05T12:22:24.537Z,74.62
2018-11-05T12:23:24.559Z,74.75
2018-11-05T12:24:24.569Z,74.62
2018-11-05T12:25:24.504Z,74.82
2018-11-05T12:26:24.518Z,74.71
2018-11-05T12:27:24.490Z,74.92
2018-11-05T12:28:24.503Z,74.10
2018-11-05T12:29:24.509Z,73.70
2018-11-05T12:30:24.449Z,73.80
2018-11-05T12:31:24.470Z,73.80
2018-11-05T12:32:24.431Z,73.57
2018-11-05T12:33:24.410Z,73.36
2018-11-05T12:34:24.424Z,73.46
2018-11-05T12:35:24.389Z,73.57
2018-11-05T12:36:24.395Z,73.77
2018-11-05T12:37:24.399Z,73.36
2018-11-05T12:38:24.409Z,73.36
2018-11-05T12:39:24.360Z,73.77
2018-11-05T12:40:24.343Z,74.78
2018-11-05T12:41:24.324Z,73.46
2018-11-05T12:42:24.324Z,73.02
2018-11-05T12:43:24.321Z,73.16
2018-11-05T12:44:24.347Z,72.92
2018-11-05T12:45:24.281Z,73.12
2018-11-05T12:46:24.296Z,72.72
2018-11-05T12:47:24.257Z,73.33
2018-11-05T12:48:24.249Z,73.22
2018-11-05T12:49:24.253Z,73.63
2018-11-05T12:50:24.309Z,72.72
2018-11-05T12:51:24.214Z,73.43
2018-11-05T12:52:24.206Z,73.12
2018-11-05T12:53:24.197Z,73.22